FranceFixed distance
La SaintéLyon
30 Nov – 1 Dec2024
Distance
82km
Finishers
6,2495,534 men704 women
Winning time
5:52:21h
Median pace
6.86km/h
Pace distribution
6,238 finishers · 4.62–13.96 km/h · mean 7.02
Every finisher ran the same 82 km course, so these paces are directly comparable.
Histogram of finisher pace. 6,238 finishers ranged from 4.62 to 13.96 kilometres per hour, with a mean of 7.02 and a median of 6.86. The busiest band is 6.5 to 7.0 kilometres per hour, with 1,188 finishers.
Results
Ranks 4,251–4,300 of 6,238
| Rank | Runner | Time | Pace | Cat. | Placing |
|---|---|---|---|---|---|
| 4259 | Simon, AudreyFranceWoman | 12:50:24h | 6.39 | W35 | 351st F · 72nd W35 |
| 4259 | Rouyer, JulienFranceMan | 12:50:24h | 6.39 | M45 | 3909th M · 358th M45 |
| 4261 | Comment, AlexandreFranceMan *Corbas | 12:50:26h | 6.39 | M50 | 3910th M · 219th M50 |
| 4262 | Cournez, ThierryFranceMan | 12:50:30h | 6.38 | M50 | 3911th M · 220th M50 |
| 4262 | Demoux, SebastienFranceMan Course Horizon | 12:50:30h | 6.38 | M50 | 3911th M · 220th M50 |
| 4264 | Luque, Jean-FrancoisFranceMan *Villeurbanne | 12:50:33h | 6.38 | M23 | 3913th M · 1815th M23 |
| 4265 | Thibaudeau, LandryFranceMan *Grosbreuil | 12:50:38h | 6.38 | MU23 | 3914th M · 249th MU23 |
| 4265 | Reynaert, VincentFranceMan *Courbevoie | 12:50:38h | 6.38 | M35 | 3914th M · 625th M35 |
| 4265 | Zepi, DylanFranceMan | 12:50:38h | 6.38 | MU23 | 3914th M · 249th MU23 |
| 4268 | Djordjevic, TamaraFranceWoman *Palaiseau | 12:50:39h | 6.38 | W23 | 352nd F · 174th W23 |
| 4269 | Cottaz, JulienFranceMan *Saint-Germain-Nuelles | 12:50:41h | 6.38 | M40 | 3917th M · 520th M40 |
| 4270 | Tougeron, EvgueniFranceMan *Paris | 12:50:46h | 6.38 | M23 | 3918th M · 1816th M23 |
| 4270 | Mace, PhilippeFranceMan *Puy-Saint-Martin | 12:50:46h | 6.38 | M23 | 3918th M · 1816th M23 |
| 4272 | Sandenon Seteyen, ArnaudFranceMan | 12:50:56h | 6.38 | M50 | 3920th M · 222nd M50 |
| 4272 | Monin, EmileSwitzerlandMan | 12:50:56h | 6.38 | M23 | 3920th M · 1818th M23 |
| 4272 | Desmazure, EmericFranceMan *Lyon | 12:50:56h | 6.38 | M23 | 3920th M · 1818th M23 |
| 4275 | Palop, So HyunFranceWoman | 12:50:57h | 6.38 | W40 | 353rd F · 42nd W40 |
| 4276 | Finkelstein, RaphaelFranceMan *Lyon | 12:51:11h | 6.38 | M23 | 3923rd M · 1820th M23 |
| 4277 | Vallier, NicolasFranceMan CSE Crouzet | 12:51:18h | 6.38 | M50 | 3924th M · 223rd M50 |
| 4278 | Choisy, XavierFranceMan | 12:51:23h | 6.38 | M35 | 3925th M · 626th M35 |
| 4279 | Baille, MikaelFranceMan | 12:51:26h | 6.38 | M50 | 3926th M · 224th M50 |
| 4280 | Sellenet, CedricFranceMan les Runners du Rail Di... | 12:51:28h | 6.38 | M35 | 3927th M · 627th M35 |
| 4281 | Besancon, ThierryFranceMan *Paris | 12:51:49h | 6.38 | M55 | 3928th M · 82nd M55 |
| 4282 | Pourrat, AnthonyFranceMan *Grigny | 12:51:51h | 6.37 | M35 | 3929th M · 628th M35 |
| 4282 | Pourrat, StephaneFranceMan *Pact | 12:51:51h | 6.37 | M45 | 3929th M · 359th M45 |
| 4284 | Ngau Martin, CecileFranceWoman Saône Mont D’Or Nature | 12:51:52h | 6.37 | W35 | 354th F · 73rd W35 |
| 4285 | Revillier, JeromeFranceMan Tarn Agout Triathlon | 12:51:56h | 6.37 | M40 | 3931st M · 521st M40 |
| 4285 | Pinilla Gavilan, CarlosSpainMan Town TO Trail | 12:51:56h | 6.37 | M45 | 3931st M · 360th M45 |
| 4287 | Desrues, GaetanFranceMan | 12:52:00h | 6.37 | M23 | 3933rd M · 1821st M23 |
| 4287 | Floriot, BaptisteFranceMan *Lambesc | 12:52:00h | 6.37 | M23 | 3933rd M · 1821st M23 |
| 4289 | Bigot, PierreFranceMan | 12:52:02h | 6.37 | M55 | 3935th M · 83rd M55 |
| 4290 | Delauney, NicolasFranceMan | 12:52:05h | 6.37 | M35 | 3936th M · 629th M35 |
| 4291 | Valla, JulienFranceMan Town TO Trail / Catj | 12:52:11h | 6.37 | M35 | 3937th M · 630th M35 |
| 4292 | Catto, LudovicFranceMan AS Randonneurs RUY Mon... | 12:52:13h | 6.37 | M50 | 3938th M · 225th M50 |
| 4293 | Boisson, Jean-BruceFranceMan Saint Eloi | 12:52:16h | 6.37 | M35 | 3939th M · 631st M35 |
| 4294 | N., N.FranceMan | 12:52:17h | 6.37 | M35 | 3940th M · 632nd M35 |
| 4295 | Souleliac, LouisFranceMan | 12:52:22h | 6.37 | M23 | 3941st M · 1823rd M23 |
| 4296 | Dewavrin, GuillaumeFranceMan Triathlon Club Carcass... | 12:52:30h | 6.37 | M23 | 3942nd M · 1824th M23 |
| 4297 | Pignol, Paul-HenriFranceMan Apave | 12:52:32h | 6.37 | M35 | 3943rd M · 633rd M35 |
| 4298 | Sottilini, MiloFranceMan | 12:52:40h | 6.37 | M23 | 3944th M · 1825th M23 |
| 4299 | Hiriart, JeanFranceMan SO Run | 12:52:42h | 6.37 | M40 | 3945th M · 522nd M40 |
| 4300 | Durand, ChantalFranceWoman | 12:52:44h | 6.37 | W45 | 355th F · 37th W45 |
| 4301 | Durand, GerardFranceMan | 12:52:45h | 6.37 | M45 | 3946th M · 361st M45 |
| 4302 | de Simone, LucasFranceMan Cringe Boomer | 12:52:48h | 6.37 | M23 | 3947th M · 1826th M23 |
| 4303 | Charriaut, FabienFranceMan Union des Coureurs de ... | 12:52:50h | 6.37 | M40 | 3948th M · 523rd M40 |
| 4304 | Templier, RomainFranceMan Team Guenilles | 12:52:51h | 6.37 | M35 | 3949th M · 634th M35 |
| 4305 | Verryser, XavierFranceMan . | 12:53:14h | 6.36 | M45 | 3950th M · 362nd M45 |
| 4306 | Caudron, KarimFranceMan | 12:53:19h | 6.36 | M35 | 3951st M · 635th M35 |
| 4307 | Leclercq, ClementFranceMan | 12:53:22h | 6.36 | MU23 | 3952nd M · 251st MU23 |
| 4308 | Elhadjene, NoryFranceMan *Saint-Étienne | 12:53:26h | 6.36 | M23 | 3953rd M · 1827th M23 |
- 4259Simon, AudreyFranceWoman351st F · 72nd W35Time12:50:24hPace6.39Cat.W35
- 4259Rouyer, JulienFranceMan3909th M · 358th M45Time12:50:24hPace6.39Cat.M45
- 4261Comment, AlexandreFranceMan*Corbas3910th M · 219th M50Time12:50:26hPace6.39Cat.M50
- 4262Cournez, ThierryFranceMan3911th M · 220th M50Time12:50:30hPace6.38Cat.M50
- 4262Demoux, SebastienFranceManCourse Horizon3911th M · 220th M50Time12:50:30hPace6.38Cat.M50
- 4264Luque, Jean-FrancoisFranceMan*Villeurbanne3913th M · 1815th M23Time12:50:33hPace6.38Cat.M23
- 4265Thibaudeau, LandryFranceMan*Grosbreuil3914th M · 249th MU23Time12:50:38hPace6.38Cat.MU23
- 4265Reynaert, VincentFranceMan*Courbevoie3914th M · 625th M35Time12:50:38hPace6.38Cat.M35
- 4265Zepi, DylanFranceMan3914th M · 249th MU23Time12:50:38hPace6.38Cat.MU23
- 4268Djordjevic, TamaraFranceWoman*Palaiseau352nd F · 174th W23Time12:50:39hPace6.38Cat.W23
- 4269Cottaz, JulienFranceMan*Saint-Germain-Nuelles3917th M · 520th M40Time12:50:41hPace6.38Cat.M40
- 4270Tougeron, EvgueniFranceMan*Paris3918th M · 1816th M23Time12:50:46hPace6.38Cat.M23
- 4270Mace, PhilippeFranceMan*Puy-Saint-Martin3918th M · 1816th M23Time12:50:46hPace6.38Cat.M23
- 4272Sandenon Seteyen, ArnaudFranceMan3920th M · 222nd M50Time12:50:56hPace6.38Cat.M50
- 4272Monin, EmileSwitzerlandMan3920th M · 1818th M23Time12:50:56hPace6.38Cat.M23
- 4272Desmazure, EmericFranceMan*Lyon3920th M · 1818th M23Time12:50:56hPace6.38Cat.M23
- 4275Palop, So HyunFranceWoman353rd F · 42nd W40Time12:50:57hPace6.38Cat.W40
- 4276Finkelstein, RaphaelFranceMan*Lyon3923rd M · 1820th M23Time12:51:11hPace6.38Cat.M23
- 4277Vallier, NicolasFranceManCSE Crouzet3924th M · 223rd M50Time12:51:18hPace6.38Cat.M50
- 4278Choisy, XavierFranceMan3925th M · 626th M35Time12:51:23hPace6.38Cat.M35
- 4279Baille, MikaelFranceMan3926th M · 224th M50Time12:51:26hPace6.38Cat.M50
- 4280Sellenet, CedricFranceManles Runners du Rail Di...3927th M · 627th M35Time12:51:28hPace6.38Cat.M35
- 4281Besancon, ThierryFranceMan*Paris3928th M · 82nd M55Time12:51:49hPace6.38Cat.M55
- 4282Pourrat, AnthonyFranceMan*Grigny3929th M · 628th M35Time12:51:51hPace6.37Cat.M35
- 4282Pourrat, StephaneFranceMan*Pact3929th M · 359th M45Time12:51:51hPace6.37Cat.M45
- 4284Ngau Martin, CecileFranceWomanSaône Mont D’Or Nature354th F · 73rd W35Time12:51:52hPace6.37Cat.W35
- 4285Revillier, JeromeFranceManTarn Agout Triathlon3931st M · 521st M40Time12:51:56hPace6.37Cat.M40
- 4285Pinilla Gavilan, CarlosSpainManTown TO Trail3931st M · 360th M45Time12:51:56hPace6.37Cat.M45
- 4287Desrues, GaetanFranceMan3933rd M · 1821st M23Time12:52:00hPace6.37Cat.M23
- 4287Floriot, BaptisteFranceMan*Lambesc3933rd M · 1821st M23Time12:52:00hPace6.37Cat.M23
- 4289Bigot, PierreFranceMan3935th M · 83rd M55Time12:52:02hPace6.37Cat.M55
- 4290Delauney, NicolasFranceMan3936th M · 629th M35Time12:52:05hPace6.37Cat.M35
- 4291Valla, JulienFranceManTown TO Trail / Catj3937th M · 630th M35Time12:52:11hPace6.37Cat.M35
- 4292Catto, LudovicFranceManAS Randonneurs RUY Mon...3938th M · 225th M50Time12:52:13hPace6.37Cat.M50
- 4293Boisson, Jean-BruceFranceManSaint Eloi3939th M · 631st M35Time12:52:16hPace6.37Cat.M35
- 4294N., N.FranceMan3940th M · 632nd M35Time12:52:17hPace6.37Cat.M35
- 4295Souleliac, LouisFranceMan3941st M · 1823rd M23Time12:52:22hPace6.37Cat.M23
- 4296Dewavrin, GuillaumeFranceManTriathlon Club Carcass...3942nd M · 1824th M23Time12:52:30hPace6.37Cat.M23
- 4297Pignol, Paul-HenriFranceManApave3943rd M · 633rd M35Time12:52:32hPace6.37Cat.M35
- 4298Sottilini, MiloFranceMan3944th M · 1825th M23Time12:52:40hPace6.37Cat.M23
- 4299Hiriart, JeanFranceManSO Run3945th M · 522nd M40Time12:52:42hPace6.37Cat.M40
- 4300Durand, ChantalFranceWoman355th F · 37th W45Time12:52:44hPace6.37Cat.W45
- 4301Durand, GerardFranceMan3946th M · 361st M45Time12:52:45hPace6.37Cat.M45
- 4302de Simone, LucasFranceManCringe Boomer3947th M · 1826th M23Time12:52:48hPace6.37Cat.M23
- 4303Charriaut, FabienFranceManUnion des Coureurs de ...3948th M · 523rd M40Time12:52:50hPace6.37Cat.M40
- 4304Templier, RomainFranceManTeam Guenilles3949th M · 634th M35Time12:52:51hPace6.37Cat.M35
- 4305Verryser, XavierFranceMan.3950th M · 362nd M45Time12:53:14hPace6.36Cat.M45
- 4306Caudron, KarimFranceMan3951st M · 635th M35Time12:53:19hPace6.36Cat.M35
- 4307Leclercq, ClementFranceMan3952nd M · 251st MU23Time12:53:22hPace6.36Cat.MU23
- 4308Elhadjene, NoryFranceMan*Saint-Étienne3953rd M · 1827th M23Time12:53:26hPace6.36Cat.M23
Showing ranks 4,251–4,300 of 6,238